Time;durP1;ratioP1;P1;durP2;ratioP2;P2;SDS_P1;SDS_P2;PMS_P1;PMS_P2;Temp;Humidity;BMP_temperature;BMP_pressure;BME280_temperature;BME280_humidity;BME280_pressure;Samples;Min_cycle;Max_cycle;Signal;HPM_P1;HPM_P2
2023/03/01 00:01:34;;;;;;;11.05;5.95;;;2.00;94.50;;;;;;4998067;28;20482;-78
2023/03/01 00:04:00;;;;;;;13.43;6.43;;;2.00;94.60;;;;;;4994422;28;20049;-78
2023/03/01 00:06:27;;;;;;;8.50;5.70;;;2.00;94.70;;;;;;4997620;28;20026;-80
2023/03/01 00:08:53;;;;;;;11.05;6.00;;;2.00;94.80;;;;;;4990299;28;20044;-78
2023/03/01 00:11:23;;;;;;;17.75;6.28;;;2.00;94.80;;;;;;4974716;28;20018;-80
2023/03/01 00:13:50;;;;;;;9.73;5.13;;;1.90;95.00;;;;;;4979703;28;20432;-80
2023/03/01 00:16:34;;;;;;;7.45;5.13;;;1.90;95.10;;;;;;4985046;28;20458;-80
2023/03/01 00:19:00;;;;;;;11.20;5.88;;;1.90;95.30;;;;;;4991894;28;20151;-79
2023/03/01 00:21:26;;;;;;;12.60;5.90;;;1.90;95.40;;;;;;4993825;28;20030;-79
2023/03/01 00:23:52;;;;;;;13.75;5.88;;;1.90;95.50;;;;;;4984606;28;20034;-80
2023/03/01 00:26:19;;;;;;;11.77;5.75;;;1.90;95.70;;;;;;4981716;28;20359;-79
2023/03/01 00:28:46;;;;;;;17.73;6.15;;;1.80;95.90;;;;;;4991620;28;20030;-80
2023/03/01 00:31:17;;;;;;;11.90;6.30;;;1.80;95.90;;;;;;4996570;28;20034;-83
2023/03/01 00:33:43;;;;;;;9.27;5.80;;;1.80;96.30;;;;;;4996812;28;20149;-80
2023/03/01 00:36:13;;;;;;;14.70;6.22;;;1.80;96.40;;;;;;4976690;28;21429;-78
2023/03/01 00:38:41;;;;;;;8.90;5.55;;;1.80;96.50;;;;;;4985082;28;20021;-80
2023/03/01 00:41:14;;;;;;;10.48;6.43;;;1.80;96.60;;;;;;4991332;28;20041;-78
2023/03/01 00:43:39;;;;;;;7.53;5.13;;;1.80;96.60;;;;;;4994604;28;20466;-78
2023/03/01 00:46:08;;;;;;;9.40;5.45;;;1.80;96.80;;;;;;4978032;28;20022;-80
2023/03/01 00:48:34;;;;;;;9.63;5.63;;;1.80;97.10;;;;;;4991061;28;20022;-78
2023/03/01 00:51:10;;;;;;;11.00;5.88;;;1.80;96.90;;;;;;4994127;28;20022;-81
2023/03/01 00:53:36;;;;;;;9.48;5.55;;;1.70;96.80;;;;;;4995333;28;20073;-82
2023/03/01 00:56:04;;;;;;;9.90;5.20;;;1.70;97.50;;;;;;4993510;28;20541;-82
2023/03/01 00:58:29;;;;;;;9.80;5.35;;;1.80;97.20;;;;;;4981524;28;20502;-82
2023/03/01 01:00:55;;;;;;;13.05;5.95;;;1.70;97.50;;;;;;4989225;28;20045;-82
2023/03/01 01:03:23;;;;;;;11.98;5.88;;;1.70;97.60;;;;;;4982924;28;20030;-82
2023/03/01 01:05:48;;;;;;;11.15;5.60;;;1.70;97.70;;;;;;4992520;28;20026;-81
2023/03/01 01:08:14;;;;;;;7.97;5.47;;;1.70;97.70;;;;;;4997411;28;20410;-80
2023/03/01 01:10:39;;;;;;;10.23;5.97;;;1.70;97.90;;;;;;4996130;28;20019;-79
2023/03/01 01:13:05;;;;;;;11.85;5.47;;;1.70;98.00;;;;;;4979297;28;20022;-80
2023/03/01 01:15:34;;;;;;;13.35;5.72;;;1.70;98.00;;;;;;4983695;28;20046;-79
2023/03/01 01:18:01;;;;;;;12.18;5.78;;;1.70;98.10;;;;;;4992067;28;20038;-79
2023/03/01 01:20:26;;;;;;;8.30;5.65;;;1.70;98.20;;;;;;4996460;28;20019;-78
2023/03/01 01:22:52;;;;;;;10.48;5.25;;;1.70;98.30;;;;;;4979930;28;20029;-79
2023/03/01 01:25:20;;;;;;;7.78;5.28;;;1.60;98.20;;;;;;4992842;28;20540;-79
2023/03/01 01:27:46;;;;;;;10.50;5.47;;;1.60;98.50;;;;;;4975676;28;20029;-79
2023/03/01 01:30:12;;;;;;;10.32;5.63;;;1.60;98.40;;;;;;4998383;28;20018;-81
2023/03/01 01:32:38;;;;;;;10.35;5.47;;;1.60;98.20;;;;;;4999084;28;20038;-81
2023/03/01 01:35:04;;;;;;;17.02;6.65;;;1.50;98.20;;;;;;4988982;28;20068;-81
2023/03/01 01:37:32;;;;;;;15.05;5.57;;;1.50;99.10;;;;;;4988442;28;20026;-81
2023/03/01 01:39:59;;;;;;;12.32;6.07;;;1.50;99.40;;;;;;5002072;28;20061;-80
2023/03/01 01:42:25;;;;;;;12.52;6.00;;;1.60;99.50;;;;;;4984030;28;20097;-81
2023/03/01 01:45:29;;;;;;;15.05;5.90;;;1.50;99.50;;;;;;4993384;28;20398;-81
2023/03/01 01:47:58;;;;;;;9.35;5.53;;;1.50;99.60;;;;;;4990205;28;20023;-81
2023/03/01 01:50:25;;;;;;;13.32;5.72;;;1.50;99.60;;;;;;4986220;28;20022;-81
2023/03/01 01:52:53;;;;;;;8.63;5.47;;;1.50;99.80;;;;;;4991700;28;20026;-81
2023/03/01 01:55:23;;;;;;;11.25;5.75;;;1.40;99.90;;;;;;4986927;28;20022;-81
2023/03/01 01:57:53;;;;;;;10.40;5.93;;;1.40;99.90;;;;;;4996891;28;20056;-79
2023/03/01 02:00:24;;;;;;;10.55;5.68;;;1.40;99.90;;;;;;4993891;28;20042;-80
2023/03/01 02:02:55;;;;;;;15.30;6.25;;;1.40;99.90;;;;;;4994911;28;20029;-79
2023/03/01 02:05:49;;;;;;;9.88;5.90;;;1.30;99.90;;;;;;4991870;28;20042;-79
2023/03/01 02:08:18;;;;;;;11.57;5.55;;;1.30;99.90;;;;;;4996917;28;20022;-79
2023/03/01 02:10:50;;;;;;;11.10;5.63;;;1.30;99.90;;;;;;4975974;28;20022;-78
2023/03/01 02:13:16;;;;;;;8.82;5.30;;;1.20;99.90;;;;;;4983280;28;20022;-79
2023/03/01 02:15:43;;;;;;;11.43;6.32;;;1.20;99.90;;;;;;4976429;28;20029;-80
2023/03/01 02:18:11;;;;;;;8.73;5.78;;;1.20;99.90;;;;;;4979061;28;20113;-79
2023/03/01 02:21:24;;;;;;;12.65;5.40;;;1.20;99.90;;;;;;4997595;28;20018;-79
2023/03/01 02:23:50;;;;;;;9.93;5.45;;;1.20;99.90;;;;;;4954631;28;20042;-79
2023/03/01 02:26:20;;;;;;;17.58;5.97;;;1.20;99.90;;;;;;4974324;28;20377;-79
2023/03/01 02:28:47;;;;;;;9.43;5.50;;;1.10;99.90;;;;;;4992777;28;20302;-79
2023/03/01 02:34:06;;;;;;;12.02;6.22;;;1.10;99.90;;;;;;4993488;28;20096;-79
2023/03/01 02:36:36;;;;;;;11.25;6.00;;;1.10;99.90;;;;;;4998253;28;20044;-79
2023/03/01 02:39:07;;;;;;;11.23;5.75;;;1.10;99.90;;;;;;4983851;28;20487;-79
2023/03/01 02:41:37;;;;;;;11.50;6.43;;;1.00;99.90;;;;;;4983924;28;20112;-79
2023/03/01 02:44:04;;;;;;;13.07;5.63;;;1.10;99.90;;;;;;4994539;28;20128;-79
2023/03/01 02:46:29;;;;;;;12.57;6.38;;;1.00;99.90;;;;;;4997528;28;20018;-79
2023/03/01 02:48:57;;;;;;;19.90;6.57;;;1.00;99.90;;;;;;4983515;28;20052;-79
2023/03/01 02:51:41;;;;;;;9.45;5.65;;;0.90;99.90;;;;;;4980633;28;20037;-79
2023/03/01 02:54:19;;;;;;;11.10;5.93;;;0.90;99.90;;;;;;4986119;28;20687;-79
2023/03/01 02:56:48;;;;;;;12.75;6.57;;;1.00;99.90;;;;;;4995585;28;20085;-80
2023/03/01 02:59:16;;;;;;;14.98;6.50;;;1.00;99.90;;;;;;4996178;28;20512;-79
2023/03/01 03:01:41;;;;;;;11.38;6.80;;;0.90;99.90;;;;;;4993721;28;20101;-79
2023/03/01 03:04:11;;;;;;;13.02;7.25;;;1.00;99.90;;;;;;4974898;28;20130;-79
2023/03/01 03:06:37;;;;;;;12.43;6.57;;;0.90;99.90;;;;;;4995409;28;20394;-80
2023/03/01 03:09:04;;;;;;;11.73;7.03;;;0.90;99.90;;;;;;4992311;28;20114;-79
2023/03/01 03:11:30;;;;;;;9.95;6.88;;;0.90;99.90;;;;;;4990384;28;20039;-79
2023/03/01 03:13:57;;;;;;;11.05;6.68;;;0.90;99.90;;;;;;4996247;28;20112;-80
2023/03/01 03:16:22;;;;;;;12.52;6.50;;;0.90;99.90;;;;;;4997441;28;20022;-79
2023/03/01 03:18:50;;;;;;;11.75;6.45;;;0.90;99.90;;;;;;4998282;28;20029;-79
2023/03/01 03:21:17;;;;;;;12.85;5.88;;;0.90;99.90;;;;;;4985805;28;20119;-81
2023/03/01 03:23:43;;;;;;;11.88;5.95;;;0.80;99.90;;;;;;4993246;28;20046;-81
2023/03/01 03:26:13;;;;;;;13.13;6.38;;;0.80;99.90;;;;;;4976168;28;20748;-81
2023/03/01 03:28:39;;;;;;;13.43;6.70;;;0.90;99.90;;;;;;4996486;28;20029;-81
2023/03/01 03:31:07;;;;;;;12.00;6.45;;;0.80;99.90;;;;;;4994698;28;20033;-81
2023/03/01 03:33:32;;;;;;;11.18;6.45;;;0.80;99.90;;;;;;4993746;28;20801;-81
2023/03/01 03:35:58;;;;;;;15.25;6.65;;;0.80;99.90;;;;;;4998473;28;20038;-81
2023/03/01 03:38:24;;;;;;;9.93;5.70;;;0.80;99.90;;;;;;4994575;28;20021;-79
2023/03/01 03:41:03;;;;;;;13.68;6.03;;;0.80;99.90;;;;;;4981355;28;20022;-80
2023/03/01 03:43:33;;;;;;;10.15;5.97;;;0.80;99.90;;;;;;4994133;28;20049;-81
2023/03/01 03:45:58;;;;;;;13.30;6.65;;;0.80;99.90;;;;;;4993765;28;20360;-81
2023/03/01 03:48:25;;;;;;;13.43;6.82;;;0.80;99.90;;;;;;4995225;28;20015;-81
2023/03/01 03:50:52;;;;;;;14.50;5.97;;;0.80;99.90;;;;;;4993119;28;20018;-80
2023/03/01 03:53:20;;;;;;;13.50;6.63;;;0.70;99.90;;;;;;4986120;28;20018;-81
2023/03/01 03:55:49;;;;;;;11.27;6.15;;;0.70;99.90;;;;;;4971305;28;20510;-80
2023/03/01 03:58:16;;;;;;;10.43;6.35;;;0.70;99.90;;;;;;4995717;28;20113;-79
2023/03/01 04:00:44;;;;;;;9.07;6.00;;;0.70;99.90;;;;;;4993177;28;20018;-79
2023/03/01 04:03:11;;;;;;;13.48;6.45;;;0.70;99.90;;;;;;4993200;28;20553;-80
2023/03/01 04:05:42;;;;;;;14.23;6.15;;;0.70;99.90;;;;;;4974570;28;20370;-79
2023/03/01 04:08:08;;;;;;;10.85;6.57;;;0.70;99.90;;;;;;4979092;28;20107;-79
2023/03/01 04:10:37;;;;;;;10.50;6.78;;;0.70;99.90;;;;;;4975559;28;20600;-81
2023/03/01 04:13:09;;;;;;;15.15;6.70;;;0.70;99.90;;;;;;4984752;28;20058;-80
2023/03/01 04:15:34;;;;;;;15.77;6.35;;;0.70;99.90;;;;;;4977248;28;20026;-81
2023/03/01 04:18:06;;;;;;;12.68;6.20;;;0.70;99.90;;;;;;4977378;28;20504;-82
2023/03/01 04:20:35;;;;;;;13.88;7.20;;;0.70;99.90;;;;;;4994184;28;20122;-79
2023/03/01 04:23:12;;;;;;;11.82;6.75;;;0.70;99.90;;;;;;4973126;28;20033;-79
2023/03/01 04:25:40;;;;;;;18.30;6.85;;;0.70;99.90;;;;;;4982614;28;20111;-79
2023/03/01 04:28:06;;;;;;;24.10;7.28;;;0.70;99.90;;;;;;4978208;28;20430;-79
2023/03/01 04:30:35;;;;;;;14.27;6.80;;;0.70;99.90;;;;;;4988986;28;20461;-81
2023/03/01 04:33:03;;;;;;;15.88;6.75;;;0.70;99.90;;;;;;4993147;28;20018;-81
2023/03/01 04:35:30;;;;;;;13.07;7.00;;;0.70;99.90;;;;;;4991881;28;20414;-79
2023/03/01 04:37:55;;;;;;;16.92;7.05;;;0.70;99.90;;;;;;4978590;28;20033;-79
2023/03/01 04:40:21;;;;;;;13.80;6.25;;;0.70;99.90;;;;;;4973885;28;20077;-79
2023/03/01 04:42:47;;;;;;;13.23;7.05;;;0.70;99.90;;;;;;4992175;28;20056;-79
2023/03/01 04:45:12;;;;;;;11.50;6.47;;;0.60;99.90;;;;;;4996483;28;20049;-79
2023/03/01 04:47:44;;;;;;;12.65;6.50;;;0.60;99.90;;;;;;4993519;28;20025;-79
2023/03/01 04:50:11;;;;;;;13.88;7.10;;;0.70;99.90;;;;;;4990161;28;20038;-79
2023/03/01 04:52:36;;;;;;;13.77;6.53;;;0.70;99.90;;;;;;4990692;28;20026;-78
2023/03/01 04:55:03;;;;;;;17.50;6.75;;;0.70;99.90;;;;;;4997058;28;20022;-80
2023/03/01 04:57:31;;;;;;;14.32;7.25;;;0.70;99.90;;;;;;4994216;28;20021;-79
2023/03/01 04:59:57;;;;;;;12.63;6.72;;;0.70;99.90;;;;;;4979136;28;20034;-80
2023/03/01 05:02:23;;;;;;;16.25;7.00;;;0.70;99.90;;;;;;4996815;28;20018;-80
2023/03/01 05:04:49;;;;;;;11.93;6.53;;;0.70;99.90;;;;;;4992243;28;20147;-79
2023/03/01 05:07:19;;;;;;;15.45;6.40;;;0.60;99.90;;;;;;4996906;28;20132;-80
2023/03/01 05:09:48;;;;;;;12.57;7.40;;;0.70;99.90;;;;;;4994253;28;20033;-79
2023/03/01 05:12:14;;;;;;;15.00;7.50;;;0.70;99.90;;;;;;4996007;28;20132;-79
2023/03/01 05:14:41;;;;;;;16.48;7.20;;;0.60;99.90;;;;;;4975070;28;20032;-79
2023/03/01 05:17:07;;;;;;;13.88;7.00;;;0.60;99.90;;;;;;4993126;28;20029;-79
2023/03/01 05:19:32;;;;;;;12.68;7.40;;;0.60;99.90;;;;;;4982257;28;20021;-79
2023/03/01 05:22:01;;;;;;;11.65;7.05;;;0.60;99.90;;;;;;4979026;28;20482;-80
2023/03/01 05:24:27;;;;;;;18.85;7.95;;;0.60;99.90;;;;;;4974600;28;20034;-79
2023/03/01 05:26:53;;;;;;;15.75;8.25;;;0.60;99.90;;;;;;4989807;28;20026;-79
2023/03/01 05:29:24;;;;;;;17.58;8.20;;;0.60;99.90;;;;;;4993242;28;20048;-79
2023/03/01 05:31:57;;;;;;;15.93;7.20;;;0.60;99.90;;;;;;4993944;28;20456;-79
2023/03/01 05:34:31;;;;;;;17.30;7.93;;;0.50;99.90;;;;;;4995356;28;20033;-79
2023/03/01 05:36:58;;;;;;;15.50;8.10;;;0.50;99.90;;;;;;4981745;28;20042;-79
2023/03/01 05:39:26;;;;;;;11.27;6.72;;;0.50;99.90;;;;;;4993110;28;20018;-79
2023/03/01 05:41:53;;;;;;;15.27;7.45;;;0.50;99.90;;;;;;4993540;28;20030;-79
2023/03/01 05:44:19;;;;;;;16.23;8.20;;;0.50;99.90;;;;;;4975206;28;20180;-78
2023/03/01 05:46:46;;;;;;;16.65;7.10;;;0.50;99.90;;;;;;4991950;28;20382;-79
2023/03/01 05:49:15;;;;;;;16.90;7.88;;;0.50;99.90;;;;;;4982240;28;20521;-79
2023/03/01 05:51:42;;;;;;;15.35;7.32;;;0.50;99.90;;;;;;4994112;28;20498;-80
2023/03/01 05:54:11;;;;;;;17.40;8.05;;;0.40;99.90;;;;;;4990700;28;20410;-79
2023/03/01 05:56:37;;;;;;;19.02;7.40;;;0.50;99.90;;;;;;4991634;28;20046;-79
2023/03/01 05:59:04;;;;;;;12.82;7.25;;;0.50;99.90;;;;;;4992507;28;20058;-79
2023/03/01 06:01:31;;;;;;;14.38;6.93;;;0.40;99.90;;;;;;4983612;28;20053;-79
2023/03/01 06:03:57;;;;;;;16.48;6.22;;;0.40;99.90;;;;;;4995918;28;20398;-79
2023/03/01 06:06:23;;;;;;;16.98;7.75;;;0.40;99.90;;;;;;4998668;28;20035;-80
2023/03/01 06:08:52;;;;;;;12.90;7.30;;;0.50;99.90;;;;;;4998010;28;20018;-80
2023/03/01 06:11:21;;;;;;;16.48;7.15;;;0.50;99.90;;;;;;4987288;28;20025;-79
2023/03/01 06:13:47;;;;;;;14.85;7.40;;;0.50;99.90;;;;;;4996706;28;20486;-80
2023/03/01 06:16:13;;;;;;;12.30;6.50;;;0.50;99.90;;;;;;4979446;28;20168;-79
2023/03/01 06:18:40;;;;;;;14.85;7.57;;;0.50;99.90;;;;;;4980717;28;20108;-79
2023/03/01 06:21:09;;;;;;;12.60;6.28;;;0.50;99.90;;;;;;4999296;28;20033;-79
2023/03/01 06:23:37;;;;;;;19.40;7.00;;;0.50;99.90;;;;;;4986920;28;20045;-80
2023/03/01 06:26:08;;;;;;;15.73;6.75;;;0.50;99.90;;;;;;4993982;28;20117;-79
2023/03/01 06:28:37;;;;;;;20.38;7.13;;;0.50;99.90;;;;;;4997810;28;20188;-79
2023/03/01 06:31:08;;;;;;;20.13;8.05;;;0.50;99.90;;;;;;4994582;28;20549;-79
2023/03/01 06:33:34;;;;;;;23.25;7.50;;;0.50;99.90;;;;;;4981536;28;20077;-79
2023/03/01 06:35:59;;;;;;;19.98;7.75;;;0.50;99.90;;;;;;4995963;28;20022;-79
2023/03/01 06:38:25;;;;;;;20.67;9.25;;;0.50;99.90;;;;;;4996026;28;20443;-80
2023/03/01 06:40:56;;;;;;;16.80;7.18;;;0.60;99.90;;;;;;4993168;28;20045;-79
2023/03/01 06:43:25;;;;;;;15.18;7.68;;;0.70;99.90;;;;;;4998444;28;20031;-79
2023/03/01 06:45:50;;;;;;;21.50;7.70;;;0.80;99.90;;;;;;4998280;28;20014;-79
2023/03/01 06:48:19;;;;;;;17.52;6.93;;;0.90;99.90;;;;;;4979477;28;20068;-79
2023/03/01 06:50:44;;;;;;;31.33;7.82;;;0.90;99.90;;;;;;4994113;28;20481;-80
2023/03/01 06:53:12;;;;;;;13.23;6.72;;;0.90;99.90;;;;;;4986786;28;20080;-79
2023/03/01 06:55:40;;;;;;;23.70;7.43;;;0.90;99.90;;;;;;4997778;28;20540;-79
2023/03/01 06:58:06;;;;;;;23.88;7.35;;;0.90;99.90;;;;;;4977223;28;20018;-79
2023/03/01 07:00:32;;;;;;;20.13;7.50;;;0.90;99.90;;;;;;4978337;28;20080;-81
2023/03/01 07:03:02;;;;;;;15.00;7.13;;;1.00;99.90;;;;;;4995063;28;20451;-81
2023/03/01 07:05:30;;;;;;;20.30;7.70;;;1.00;99.90;;;;;;4978676;28;20038;-81
2023/03/01 07:07:56;;;;;;;13.27;6.47;;;1.00;99.90;;;;;;4995871;28;20125;-79
2023/03/01 07:10:22;;;;;;;17.48;7.43;;;1.10;99.90;;;;;;4995529;28;20018;-79
2023/03/01 07:12:47;;;;;;;16.52;7.30;;;1.10;99.90;;;;;;4993614;28;20959;-80
2023/03/01 07:15:15;;;;;;;12.45;6.18;;;1.20;99.90;;;;;;4995388;28;20038;-79
2023/03/01 07:17:41;;;;;;;11.35;7.10;;;1.20;99.90;;;;;;4991605;28;20033;-80
2023/03/01 07:20:07;;;;;;;10.07;6.72;;;1.30;99.90;;;;;;4983828;28;20022;-80
2023/03/01 07:22:32;;;;;;;13.25;7.47;;;1.30;99.90;;;;;;4978952;28;20367;-79
2023/03/01 07:25:00;;;;;;;13.60;7.13;;;1.40;99.90;;;;;;4994755;28;20049;-80
2023/03/01 07:27:26;;;;;;;16.48;6.97;;;1.40;99.90;;;;;;4976990;28;20443;-78
2023/03/01 07:29:51;;;;;;;10.82;7.10;;;1.50;99.90;;;;;;4975661;28;20085;-80
2023/03/01 07:32:17;;;;;;;13.80;6.75;;;1.70;99.90;;;;;;4986726;28;20021;-79
2023/03/01 07:34:42;;;;;;;12.20;6.53;;;2.30;99.90;;;;;;4996752;28;20496;-80
2023/03/01 07:37:08;;;;;;;17.25;7.28;;;2.40;99.90;;;;;;4995137;28;20160;-79
2023/03/01 07:39:34;;;;;;;12.80;7.22;;;2.30;99.90;;;;;;4995344;28;20479;-80
2023/03/01 07:42:00;;;;;;;17.50;7.30;;;2.30;99.90;;;;;;4980232;28;20035;-80
2023/03/01 07:44:28;;;;;;;16.33;7.43;;;2.30;99.90;;;;;;4994686;28;20092;-79
2023/03/01 07:46:56;;;;;;;14.85;6.60;;;2.30;99.90;;;;;;4979146;28;20717;-80
2023/03/01 07:49:22;;;;;;;12.63;6.55;;;2.30;99.90;;;;;;4980820;28;20030;-79
2023/03/01 07:51:47;;;;;;;19.05;7.05;;;2.40;99.90;;;;;;4979066;28;20773;-79
2023/03/01 07:54:13;;;;;;;13.38;7.53;;;2.40;99.90;;;;;;4977856;28;20030;-80
2023/03/01 07:56:41;;;;;;;13.30;6.35;;;2.50;99.90;;;;;;4995756;28;20014;-80
2023/03/01 07:59:06;;;;;;;15.82;6.38;;;2.60;99.90;;;;;;5000483;28;20034;-79
2023/03/01 08:01:32;;;;;;;14.20;7.20;;;2.60;99.90;;;;;;4994399;28;20037;-79
2023/03/01 08:04:01;;;;;;;10.73;6.30;;;2.70;99.90;;;;;;4991827;28;20754;-80
2023/03/01 08:06:29;;;;;;;14.38;7.53;;;2.80;99.90;;;;;;4993851;28;20108;-79
2023/03/01 08:08:58;;;;;;;12.75;6.55;;;2.90;99.90;;;;;;4993480;28;20441;-80
2023/03/01 08:11:23;;;;;;;10.55;6.30;;;3.00;99.90;;;;;;4974023;28;20033;-80
2023/03/01 08:13:49;;;;;;;13.88;6.47;;;3.00;99.90;;;;;;4993501;28;20022;-81
2023/03/01 08:16:16;;;;;;;12.63;7.07;;;3.10;99.90;;;;;;4982752;28;20060;-80
2023/03/01 08:18:42;;;;;;;11.50;6.50;;;3.20;99.90;;;;;;5000150;28;20598;-80
2023/03/01 08:21:14;;;;;;;12.38;7.07;;;3.30;99.90;;;;;;4984039;28;20034;-79
2023/03/01 08:23:41;;;;;;;11.27;6.65;;;3.40;99.90;;;;;;4981689;28;20030;-79
2023/03/01 08:26:19;;;;;;;9.38;5.55;;;3.50;99.90;;;;;;4979592;28;20037;-80
2023/03/01 08:28:45;;;;;;;17.95;6.78;;;3.50;99.90;;;;;;4993518;28;20041;-79
2023/03/01 08:31:21;;;;;;;17.45;5.97;;;3.70;99.90;;;;;;4973380;28;20030;-80
2023/03/01 08:33:51;;;;;;;9.85;6.13;;;3.80;99.90;;;;;;4999346;28;20041;-81
2023/03/01 08:36:18;;;;;;;9.30;5.65;;;3.90;99.90;;;;;;4993883;28;20037;-81
2023/03/01 08:38:44;;;;;;;13.02;6.60;;;4.10;99.90;;;;;;4978016;28;20064;-81
2023/03/01 08:41:09;;;;;;;10.02;5.90;;;4.20;99.80;;;;;;4977609;28;20058;-81
2023/03/01 08:43:35;;;;;;;15.23;5.47;;;4.30;99.20;;;;;;4994399;28;20882;-82
2023/03/01 08:46:00;;;;;;;7.97;5.60;;;4.40;98.70;;;;;;4993350;28;20104;-82
2023/03/01 08:48:28;;;;;;;14.45;6.65;;;4.60;98.80;;;;;;4990687;28;20061;-82
2023/03/01 08:50:56;;;;;;;10.10;5.95;;;4.70;98.40;;;;;;4994212;28;20022;-81
2023/03/01 08:53:21;;;;;;;13.07;6.50;;;4.80;98.20;;;;;;4982289;28;20025;-82
2023/03/01 08:55:47;;;;;;;14.40;5.78;;;5.00;97.80;;;;;;4994860;28;20006;-82
2023/03/01 08:58:15;;;;;;;9.57;6.15;;;5.20;97.20;;;;;;4977020;28;20394;-80
2023/03/01 09:00:43;;;;;;;9.63;6.35;;;5.30;96.80;;;;;;4991320;28;20025;-80
2023/03/01 09:03:09;;;;;;;11.90;6.45;;;5.50;96.80;;;;;;4979106;28;20029;-80
2023/03/01 09:05:36;;;;;;;15.20;7.00;;;5.60;96.50;;;;;;4974809;28;20026;-81
2023/03/01 09:08:03;;;;;;;11.88;6.55;;;5.80;96.00;;;;;;4992426;28;20081;-82
2023/03/01 09:10:31;;;;;;;14.00;6.18;;;6.00;95.90;;;;;;4975975;28;20034;-82
2023/03/01 09:12:56;;;;;;;8.00;5.32;;;6.20;94.80;;;;;;4981817;28;20577;-82
2023/03/01 09:15:22;;;;;;;12.90;6.07;;;6.70;94.40;;;;;;4994248;28;20037;-80
2023/03/01 09:17:50;;;;;;;11.13;5.97;;;7.40;93.40;;;;;;4992120;28;20571;-82
2023/03/01 09:20:16;;;;;;;8.40;5.38;;;8.00;91.60;;;;;;4980043;28;20068;-80
2023/03/01 09:22:41;;;;;;;14.68;6.40;;;8.50;90.70;;;;;;4982097;28;20022;-81
2023/03/01 09:25:09;;;;;;;11.02;5.55;;;9.30;89.20;;;;;;4998181;28;20026;-80
2023/03/01 09:27:35;;;;;;;10.38;5.72;;;10.10;85.50;;;;;;4993311;28;20022;-80
2023/03/01 09:30:01;;;;;;;8.65;5.90;;;10.70;80.40;;;;;;4979957;28;20238;-80
2023/03/01 09:32:29;;;;;;;10.73;6.18;;;11.70;76.80;;;;;;4989485;28;20022;-80
2023/03/01 09:35:03;;;;;;;8.35;5.50;;;12.00;72.00;;;;;;4994526;28;20030;-80
2023/03/01 09:37:29;;;;;;;10.40;6.18;;;12.80;69.70;;;;;;4977839;28;20524;-80
2023/03/01 09:39:54;;;;;;;8.48;6.18;;;13.10;65.70;;;;;;4977719;28;20027;-79
2023/03/01 09:42:21;;;;;;;11.45;6.03;;;13.70;63.80;;;;;;4993843;28;20061;-81
2023/03/01 09:45:01;;;;;;;11.00;6.05;;;14.60;60.90;;;;;;4999402;28;20163;-82
2023/03/01 09:47:30;;;;;;;11.05;5.65;;;15.10;57.50;;;;;;4984406;28;20026;-82
2023/03/01 09:50:16;;;;;;;8.70;5.78;;;15.50;56.70;;;;;;4998127;28;20031;-82
2023/03/01 09:52:48;;;;;;;12.65;5.95;;;15.10;54.90;;;;;;5003116;28;20026;-82
2023/03/01 09:55:40;;;;;;;13.40;6.07;;;14.90;54.40;;;;;;4998179;28;20034;-82
2023/03/01 09:58:39;;;;;;;8.15;5.65;;;14.80;54.90;;;;;;4984441;28;20034;-82
2023/03/01 10:01:25;;;;;;;10.20;5.63;;;14.50;53.30;;;;;;4988034;28;20050;-82
2023/03/01 10:04:06;;;;;;;9.20;5.57;;;14.30;53.40;;;;;;4963646;28;20057;-82
2023/03/01 10:06:35;;;;;;;11.20;5.30;;;14.10;52.80;;;;;;4976299;28;20022;-82
2023/03/01 10:09:15;;;;;;;8.43;5.32;;;13.40;53.30;;;;;;4976439;28;20018;-81
2023/03/01 10:11:52;;;;;;;10.07;5.30;;;12.90;54.00;;;;;;4981438;28;20375;-81
2023/03/01 10:14:41;;;;;;;9.70;5.25;;;12.60;53.80;;;;;;4990189;28;20043;-78
2023/03/01 10:17:17;;;;;;;10.90;5.72;;;12.70;54.00;;;;;;4974108;28;20478;-79
2023/03/01 10:19:45;;;;;;;8.88;5.20;;;12.60;55.70;;;;;;4974129;28;20435;-82
2023/03/01 10:22:28;;;;;;;8.70;5.05;;;12.20;54.00;;;;;;4988939;28;20474;-82
2023/03/01 10:24:57;;;;;;;10.45;5.32;;;11.40;55.70;;;;;;4976730;28;20532;-79
2023/03/01 10:27:36;;;;;;;9.95;5.03;;;11.00;56.40;;;;;;4992931;28;20339;-82
2023/03/01 10:30:11;;;;;;;8.65;5.00;;;10.70;57.50;;;;;;4994085;28;20022;-81
2023/03/01 10:32:37;;;;;;;10.07;4.72;;;10.70;59.00;;;;;;4989840;28;20045;-82
2023/03/01 10:35:20;;;;;;;6.53;4.68;;;10.90;58.40;;;;;;4983477;28;20537;-81
2023/03/01 10:38:03;;;;;;;11.75;5.55;;;11.50;58.30;;;;;;4982287;28;20018;-81
2023/03/01 10:40:28;;;;;;;7.50;5.45;;;11.80;57.40;;;;;;4993462;28;20100;-81
2023/03/01 10:42:58;;;;;;;7.55;5.25;;;12.00;57.10;;;;;;4991076;28;20050;-81
2023/03/01 10:45:32;;;;;;;9.10;5.32;;;11.90;57.10;;;;;;4994234;28;20574;-81
2023/03/01 10:48:15;;;;;;;8.63;5.32;;;11.60;57.20;;;;;;4981018;28;20030;-81
2023/03/01 10:50:44;;;;;;;7.28;4.93;;;11.40;57.90;;;;;;4985239;28;20579;-80
2023/03/01 10:53:26;;;;;;;8.75;4.88;;;11.50;57.70;;;;;;4981858;28;20030;-79
2023/03/01 10:56:13;;;;;;;7.72;5.43;;;11.50;57.30;;;;;;4979515;28;20064;-79
2023/03/01 10:58:41;;;;;;;10.13;5.38;;;11.10;57.40;;;;;;4977745;28;20027;-80
2023/03/01 11:01:29;;;;;;;6.95;4.63;;;10.90;58.00;;;;;;4993640;28;21082;-80
2023/03/01 11:04:06;;;;;;;8.23;5.30;;;11.20;57.70;;;;;;4978029;28;20494;-79
2023/03/01 11:06:34;;;;;;;9.70;5.50;;;11.70;57.30;;;;;;4994843;28;20025;-80
2023/03/01 11:09:27;;;;;;;8.60;5.40;;;11.90;56.20;;;;;;4996050;28;20104;-80
2023/03/01 11:11:59;;;;;;;5.80;4.57;;;11.90;55.40;;;;;;4998595;28;20026;-78
2023/03/01 11:14:27;;;;;;;9.18;5.55;;;11.70;55.90;;;;;;4983099;28;20137;-78
2023/03/01 11:17:01;;;;;;;9.20;4.90;;;11.80;55.50;;;;;;4980658;28;20407;-80
2023/03/01 11:19:28;;;;;;;12.52;5.30;;;12.10;55.70;;;;;;4984619;28;20037;-80
2023/03/01 11:22:00;;;;;;;10.68;5.30;;;12.50;54.20;;;;;;4989978;28;20026;-80
2023/03/01 11:24:45;;;;;;;8.20;5.07;;;12.70;54.20;;;;;;4990644;28;20421;-78
2023/03/01 11:27:14;;;;;;;9.40;5.30;;;12.70;53.30;;;;;;4984084;28;20042;-78
2023/03/01 11:29:46;;;;;;;11.75;5.00;;;12.90;52.80;;;;;;4991639;28;20422;-79
2023/03/01 11:32:14;;;;;;;8.88;5.60;;;12.90;52.80;;;;;;4982448;28;20037;-78
2023/03/01 11:35:09;;;;;;;10.00;5.68;;;13.00;52.90;;;;;;4984752;28;20034;-78
2023/03/01 11:38:01;;;;;;;8.30;4.88;;;12.70;51.60;;;;;;4963072;28;20031;-78
2023/03/01 11:40:29;;;;;;;11.02;5.43;;;12.40;53.10;;;;;;4997428;28;20033;-80
2023/03/01 11:43:20;;;;;;;7.80;4.90;;;12.30;54.00;;;;;;4985537;28;20060;-80
2023/03/01 11:46:23;;;;;;;9.85;5.22;;;12.20;53.70;;;;;;4985127;28;20034;-80
2023/03/01 11:49:13;;;;;;;9.60;5.03;;;11.80;54.00;;;;;;4980261;28;20176;-78
2023/03/01 11:52:01;;;;;;;9.68;4.90;;;11.50;54.70;;;;;;4985270;28;20044;-79
2023/03/01 11:54:47;;;;;;;10.10;5.13;;;11.70;55.20;;;;;;4972164;28;20110;-78
2023/03/01 11:57:27;;;;;;;11.63;5.93;;;11.50;55.40;;;;;;4977129;28;20156;-80
2023/03/01 12:00:30;;;;;;;10.98;5.65;;;11.60;56.10;;;;;;4999164;28;20110;-82
2023/03/01 12:03:05;;;;;;;8.50;5.60;;;11.90;55.00;;;;;;4994659;28;20034;-81
2023/03/01 12:05:46;;;;;;;13.70;6.20;;;11.80;54.30;;;;;;4976507;28;20104;-82
2023/03/01 12:08:21;;;;;;;8.88;5.47;;;12.00;54.40;;;;;;4994465;28;20018;-82
2023/03/01 12:11:21;;;;;;;10.52;5.50;;;12.10;54.40;;;;;;4999616;28;20194;-82
2023/03/01 12:14:09;;;;;;;7.85;6.00;;;12.30;54.30;;;;;;4983031;28;20446;-82
2023/03/01 12:17:27;;;;;;;9.80;5.65;;;12.40;54.10;;;;;;4994240;28;20021;-82
2023/03/01 12:20:14;;;;;;;13.88;6.07;;;12.30;53.70;;;;;;4952452;28;20034;-80
2023/03/01 12:22:49;;;;;;;8.13;5.03;;;12.10;53.50;;;;;;4986897;28;20026;-81
2023/03/01 12:25:15;;;;;;;9.18;5.72;;;12.10;53.20;;;;;;4994491;28;20041;-82
2023/03/01 12:28:02;;;;;;;8.50;5.72;;;12.30;52.70;;;;;;4991638;28;20034;-82
2023/03/01 12:30:36;;;;;;;8.02;5.78;;;12.20;53.10;;;;;;4996463;28;20492;-81
2023/03/01 12:33:34;;;;;;;11.55;5.93;;;12.30;52.90;;;;;;4984144;28;20038;-82
2023/03/01 12:36:22;;;;;;;9.80;6.55;;;12.40;53.30;;;;;;4972377;28;20402;-81
2023/03/01 12:39:28;;;;;;;10.23;6.22;;;12.40;53.30;;;;;;4993144;28;20033;-82
2023/03/01 12:42:20;;;;;;;10.93;6.43;;;12.60;53.80;;;;;;4992732;28;20104;-82
2023/03/01 12:45:23;;;;;;;9.35;5.97;;;12.80;53.50;;;;;;4992955;28;20040;-81
2023/03/01 12:48:02;;;;;;;11.50;6.72;;;12.80;52.50;;;;;;4989363;28;20053;-82
2023/03/01 12:50:40;;;;;;;10.80;6.15;;;13.20;51.90;;;;;;4992764;28;21280;-81
2023/03/01 12:53:33;;;;;;;12.18;6.43;;;13.20;51.40;;;;;;4992347;28;20024;-82
2023/03/01 12:56:08;;;;;;;9.75;6.35;;;13.30;51.40;;;;;;4992092;28;20038;-81
2023/03/01 12:58:49;;;;;;;14.52;6.32;;;13.20;50.90;;;;;;4996680;28;20084;-81
2023/03/01 13:01:19;;;;;;;10.48;6.55;;;13.00;51.60;;;;;;4993049;28;20029;-82
2023/03/01 13:03:48;;;;;;;8.23;5.93;;;12.90;50.80;;;;;;4983379;28;20029;-81
2023/03/01 13:06:47;;;;;;;13.60;6.80;;;12.80;50.80;;;;;;4993041;28;20281;-79
2023/03/01 13:09:24;;;;;;;10.88;6.50;;;13.00;51.00;;;;;;4974636;28;20053;-80